createdAt,value
2023-02-12T00:01:17.952Z,7.70
2023-02-12T00:03:47.083Z,7.70
2023-02-12T00:06:16.039Z,7.70
2023-02-12T00:08:43.638Z,7.70
2023-02-12T00:11:16.822Z,7.70
2023-02-12T00:13:44.047Z,7.60
2023-02-12T00:16:15.619Z,7.60
2023-02-12T00:18:42.858Z,7.50
2023-02-12T00:21:12.628Z,7.50
2023-02-12T00:23:42.414Z,7.50
2023-02-12T00:26:10.844Z,7.50
2023-02-12T00:28:37.967Z,7.50
2023-02-12T00:31:16.619Z,7.50
2023-02-12T00:33:43.741Z,7.50
2023-02-12T00:36:16.236Z,7.50
2023-02-12T00:38:43.040Z,7.40
2023-02-12T00:41:09.710Z,7.40
2023-02-12T00:43:39.197Z,7.40
2023-02-12T00:46:06.961Z,7.40
2023-02-12T00:48:36.853Z,7.40
2023-02-12T00:51:04.413Z,7.40
2023-02-12T00:53:31.573Z,7.40
2023-02-12T00:55:58.668Z,7.50
2023-02-12T00:58:25.899Z,7.50
2023-02-12T01:00:55.928Z,7.50
2023-02-12T01:03:22.883Z,7.50
2023-02-12T01:05:49.627Z,7.50
2023-02-12T01:08:16.939Z,7.40
2023-02-12T01:10:47.710Z,7.40
2023-02-12T01:13:16.606Z,7.40
2023-02-12T01:15:43.399Z,7.40
2023-02-12T01:18:10.946Z,7.40
2023-02-12T01:20:39.551Z,7.40
2023-02-12T01:23:11.170Z,7.40
2023-02-12T01:25:38.737Z,7.30
2023-02-12T01:28:05.563Z,7.30
2023-02-12T01:30:34.745Z,7.30
2023-02-12T01:33:03.912Z,7.40
2023-02-12T01:35:30.607Z,7.30
2023-02-12T01:37:59.412Z,7.40
2023-02-12T01:40:28.450Z,7.40
2023-02-12T01:42:55.150Z,7.30
2023-02-12T01:45:36.957Z,7.40
2023-02-12T01:48:03.796Z,7.40
2023-02-12T01:50:30.517Z,7.40
2023-02-12T01:52:58.423Z,7.40
2023-02-12T01:55:25.628Z,7.40
2023-02-12T01:57:56.741Z,7.40
2023-02-12T02:00:27.504Z,7.30
2023-02-12T02:02:58.871Z,7.30
2023-02-12T02:05:46.649Z,7.30
2023-02-12T02:08:15.543Z,7.30
2023-02-12T02:10:42.228Z,7.30
2023-02-12T02:13:27.714Z,7.30
2023-02-12T02:16:02.175Z,7.30
2023-02-12T02:18:55.410Z,7.30
2023-02-12T02:22:09.465Z,7.30
2023-02-12T02:24:54.529Z,7.30
2023-02-12T02:27:38.309Z,7.30
2023-02-12T02:30:22.820Z,7.30
2023-02-12T02:32:59.499Z,7.30
2023-02-12T02:35:31.413Z,7.30
2023-02-12T02:38:22.213Z,7.30
2023-02-12T02:41:09.545Z,7.30
2023-02-12T02:43:48.737Z,7.30
2023-02-12T02:46:30.820Z,7.30
2023-02-12T02:49:14.929Z,7.30
2023-02-12T02:51:44.915Z,7.30
2023-02-12T02:54:33.172Z,7.30
2023-02-12T02:57:09.805Z,7.30
2023-02-12T02:59:47.280Z,7.40
2023-02-12T03:02:23.380Z,7.30
2023-02-12T03:05:00.298Z,7.30
2023-02-12T03:07:36.797Z,7.30
2023-02-12T03:10:13.936Z,7.30
2023-02-12T03:12:51.693Z,7.40
2023-02-12T03:15:28.818Z,7.40
2023-02-12T03:18:01.804Z,7.30
2023-02-12T03:20:36.593Z,7.30
2023-02-12T03:23:19.465Z,7.30
2023-02-12T03:26:23.525Z,7.30
2023-02-12T03:28:50.766Z,7.30
2023-02-12T03:31:29.909Z,7.30
2023-02-12T03:34:11.449Z,7.20
2023-02-12T03:36:47.188Z,7.20
2023-02-12T03:39:21.368Z,7.20
2023-02-12T03:42:03.598Z,7.20
2023-02-12T03:45:01.229Z,7.20
2023-02-12T03:47:42.914Z,7.20
2023-02-12T03:50:31.860Z,7.20
2023-02-12T03:52:58.601Z,7.20
2023-02-12T03:55:25.805Z,7.20
2023-02-12T03:58:00.451Z,7.20
2023-02-12T04:00:27.654Z,7.20
2023-02-12T04:02:57.053Z,7.20
2023-02-12T04:05:28.311Z,7.20
2023-02-12T04:07:57.055Z,7.20
2023-02-12T04:10:48.273Z,7.20
2023-02-12T04:13:42.494Z,7.20
2023-02-12T04:16:29.716Z,7.20
2023-02-12T04:19:01.312Z,7.20
2023-02-12T04:21:44.732Z,7.20
2023-02-12T04:24:48.826Z,7.20
2023-02-12T04:27:23.898Z,7.20
2023-02-12T04:30:07.884Z,7.30
2023-02-12T04:32:45.521Z,7.30
2023-02-12T04:35:38.348Z,7.20
2023-02-12T04:38:26.754Z,7.30
2023-02-12T04:40:53.772Z,7.20
2023-02-12T04:43:36.493Z,7.30
2023-02-12T04:46:05.751Z,7.20
2023-02-12T04:48:34.513Z,7.20
2023-02-12T04:51:01.890Z,7.20
2023-02-12T04:53:31.081Z,7.20
2023-02-12T04:55:58.025Z,7.20
2023-02-12T04:58:24.824Z,7.20
2023-02-12T05:00:51.508Z,7.20
2023-02-12T05:03:18.146Z,7.30
2023-02-12T05:05:44.810Z,7.30
2023-02-12T05:08:13.644Z,7.30
2023-02-12T05:10:40.306Z,7.30
2023-02-12T05:13:06.964Z,7.30
2023-02-12T05:15:33.647Z,7.30
2023-02-12T05:18:00.290Z,7.30
2023-02-12T05:20:29.386Z,7.20
2023-02-12T05:22:56.061Z,7.20
2023-02-12T05:25:27.746Z,7.20
2023-02-12T05:27:56.663Z,7.30
2023-02-12T05:30:25.949Z,7.30
2023-02-12T05:32:52.578Z,7.20
2023-02-12T05:35:19.219Z,7.20
2023-02-12T05:37:45.877Z,7.20
2023-02-12T05:40:13.053Z,7.20
2023-02-12T05:42:39.846Z,7.30
2023-02-12T05:45:07.007Z,7.30
2023-02-12T05:47:33.650Z,7.20
2023-02-12T05:50:02.549Z,7.20
2023-02-12T05:52:31.315Z,7.20
2023-02-12T05:55:00.368Z,7.30
2023-02-12T05:57:29.488Z,7.20
2023-02-12T05:59:56.121Z,7.20
2023-02-12T06:02:22.929Z,7.20
2023-02-12T06:04:49.577Z,7.30
2023-02-12T06:07:16.218Z,7.30
2023-02-12T06:09:42.875Z,7.30
2023-02-12T06:12:09.508Z,7.30
2023-02-12T06:14:38.334Z,7.30
2023-02-12T06:17:05.549Z,7.30
2023-02-12T06:19:32.185Z,7.30
2023-02-12T06:21:58.879Z,7.30
2023-02-12T06:24:25.924Z,7.30
2023-02-12T06:26:52.751Z,7.30
2023-02-12T06:29:20.644Z,7.30
2023-02-12T06:31:50.069Z,7.20
2023-02-12T06:34:19.888Z,7.20
2023-02-12T06:36:51.228Z,7.10
2023-02-12T06:39:18.156Z,7.10
2023-02-12T06:41:44.921Z,7.20
2023-02-12T06:44:12.981Z,7.10
2023-02-12T06:46:39.803Z,7.10
2023-02-12T06:49:06.621Z,7.20
2023-02-12T06:51:38.143Z,7.20
2023-02-12T06:54:15.669Z,7.20
2023-02-12T06:56:42.587Z,7.20
2023-02-12T06:59:17.058Z,7.20
2023-02-12T07:01:46.873Z,7.10
2023-02-12T07:04:16.252Z,7.10
2023-02-12T07:06:46.089Z,7.10
2023-02-12T07:09:12.771Z,7.10
2023-02-12T07:11:43.883Z,7.10
2023-02-12T07:14:16.129Z,7.10
2023-02-12T07:16:45.038Z,7.20
2023-02-12T07:19:13.953Z,7.20
2023-02-12T07:21:43.160Z,7.20
2023-02-12T07:24:13.758Z,7.20
2023-02-12T07:26:41.515Z,7.20
2023-02-12T07:29:10.692Z,7.30
2023-02-12T07:31:40.441Z,7.30
2023-02-12T07:34:07.390Z,7.40
2023-02-12T07:36:34.455Z,7.40
2023-02-12T07:39:01.592Z,7.50
2023-02-12T07:41:35.179Z,7.50
2023-02-12T07:44:07.787Z,7.40
2023-02-12T07:46:37.694Z,7.60
2023-02-12T07:49:06.242Z,7.70
2023-02-12T07:51:36.686Z,7.60
2023-02-12T07:54:04.304Z,7.60
2023-02-12T07:56:37.501Z,7.80
2023-02-12T07:59:07.178Z,7.90
2023-02-12T08:01:36.713Z,7.90
2023-02-12T08:04:13.290Z,7.90
2023-02-12T08:06:44.724Z,7.90
2023-02-12T08:09:16.868Z,8.00
2023-02-12T08:11:43.892Z,8.10
2023-02-12T08:14:16.622Z,8.20
2023-02-12T08:16:47.022Z,8.20
2023-02-12T08:19:21.708Z,8.30
2023-02-12T08:21:52.765Z,8.40
2023-02-12T08:24:22.418Z,8.30
2023-02-12T08:26:51.483Z,8.40
2023-02-12T08:29:21.418Z,8.40
2023-02-12T08:31:55.160Z,8.40
2023-02-12T08:34:25.080Z,8.40
2023-02-12T08:36:55.181Z,8.40
2023-02-12T08:39:23.406Z,8.40
2023-02-12T08:41:50.463Z,8.50
2023-02-12T08:44:17.857Z,8.50
2023-02-12T08:46:50.501Z,8.50
2023-02-12T08:49:22.507Z,8.40
2023-02-12T08:51:51.917Z,8.50
2023-02-12T08:54:24.571Z,8.60
2023-02-12T08:56:54.341Z,8.60
2023-02-12T08:59:21.064Z,8.50
2023-02-12T09:01:54.305Z,8.60
2023-02-12T09:04:30.548Z,8.80
2023-02-12T09:06:59.775Z,8.80
2023-02-12T09:09:26.621Z,9.00
2023-02-12T09:11:53.437Z,9.00
2023-02-12T09:14:25.707Z,9.00
2023-02-12T09:16:53.447Z,9.00
2023-02-12T09:19:22.643Z,9.10
2023-02-12T09:21:55.867Z,9.20
2023-02-12T09:24:25.645Z,9.20
2023-02-12T09:26:52.341Z,9.20
2023-02-12T09:29:18.984Z,9.30
2023-02-12T09:31:45.791Z,9.40
2023-02-12T09:34:14.738Z,9.50
2023-02-12T09:36:41.485Z,9.70
2023-02-12T09:39:08.308Z,10.00
2023-02-12T09:41:46.964Z,9.90
2023-02-12T09:44:29.918Z,9.90
2023-02-12T09:47:29.898Z,9.70
2023-02-12T09:50:17.609Z,9.80
2023-02-12T09:52:44.603Z,10.00
2023-02-12T09:55:18.235Z,10.10
2023-02-12T09:57:45.995Z,10.00
2023-02-12T10:00:28.732Z,10.20
2023-02-12T10:02:55.590Z,10.30
2023-02-12T10:05:34.956Z,10.20
2023-02-12T10:08:09.558Z,10.20
2023-02-12T10:10:57.512Z,10.20
2023-02-12T10:13:26.900Z,10.30
2023-02-12T10:15:56.672Z,10.30
2023-02-12T10:18:56.844Z,10.30
2023-02-12T10:21:23.508Z,10.30
2023-02-12T10:24:13.848Z,10.50
2023-02-12T10:26:52.283Z,10.50
2023-02-12T10:29:32.390Z,10.70
2023-02-12T10:32:23.040Z,10.40
2023-02-12T10:34:53.706Z,10.80
2023-02-12T10:37:52.328Z,11.10
2023-02-12T10:40:45.262Z,11.30
2023-02-12T10:43:13.918Z,11.30
2023-02-12T10:45:42.905Z,11.00
2023-02-12T10:48:17.432Z,10.80
2023-02-12T10:51:08.676Z,10.90
2023-02-12T10:53:41.614Z,11.10
2023-02-12T10:56:08.251Z,11.00
2023-02-12T10:58:38.996Z,11.10
2023-02-12T11:01:14.671Z,11.30
2023-02-12T11:03:41.355Z,11.40
2023-02-12T11:06:20.567Z,11.60
2023-02-12T11:08:47.702Z,11.50
2023-02-12T11:11:19.261Z,11.70
2023-02-12T11:14:03.237Z,11.50
2023-02-12T11:16:40.361Z,11.90
2023-02-12T11:19:24.411Z,12.10
2023-02-12T11:21:51.823Z,12.20
2023-02-12T11:24:32.698Z,12.30
2023-02-12T11:27:33.893Z,12.30
2023-02-12T11:30:09.698Z,12.10
2023-02-12T11:32:39.602Z,12.20
2023-02-12T11:35:13.610Z,11.90
2023-02-12T11:37:43.342Z,12.30
2023-02-12T11:40:33.829Z,12.40
2023-02-12T11:43:09.463Z,12.50
2023-02-12T11:45:46.316Z,12.60
2023-02-12T11:48:23.228Z,12.30
2023-02-12T11:50:56.530Z,12.10
2023-02-12T11:53:33.397Z,12.10
2023-02-12T11:56:05.813Z,11.80
2023-02-12T11:58:34.662Z,11.90
2023-02-12T12:01:12.280Z,12.30
2023-02-12T12:03:43.111Z,12.00
2023-02-12T12:06:22.798Z,11.70
2023-02-12T12:09:06.893Z,11.90
2023-02-12T12:11:40.188Z,11.90
2023-02-12T12:14:21.862Z,12.00
2023-02-12T12:17:16.347Z,12.20
2023-02-12T12:20:11.145Z,12.50
2023-02-12T12:22:43.349Z,12.70
2023-02-12T12:25:16.146Z,12.60
2023-02-12T12:28:17.104Z,12.70
2023-02-12T12:30:56.017Z,12.40
2023-02-12T12:33:53.726Z,12.70
2023-02-12T12:36:32.383Z,12.60
2023-02-12T12:39:32.895Z,12.60
2023-02-12T12:42:23.512Z,12.50
2023-02-12T12:45:21.076Z,12.50
2023-02-12T12:48:09.289Z,12.60
2023-02-12T12:51:07.454Z,12.60
2023-02-12T12:54:02.011Z,12.80
2023-02-12T12:57:16.735Z,12.80
2023-02-12T13:00:01.284Z,12.90
2023-02-12T13:02:34.338Z,13.00
2023-02-12T13:05:13.915Z,13.10
2023-02-12T13:07:57.510Z,13.00
2023-02-12T13:10:50.818Z,13.10
2023-02-12T13:13:44.922Z,13.10
2023-02-12T13:16:16.051Z,13.10
2023-02-12T13:18:50.797Z,13.10
2023-02-12T13:21:43.844Z,13.00
2023-02-12T13:24:36.589Z,13.00
2023-02-12T13:27:11.877Z,12.90
2023-02-12T13:29:52.449Z,13.10
2023-02-12T13:33:07.085Z,13.10
2023-02-12T13:35:36.397Z,13.10
2023-02-12T13:38:03.713Z,13.10
2023-02-12T13:40:31.078Z,13.10
2023-02-12T13:43:12.957Z,13.10
2023-02-12T13:46:08.003Z,13.10
2023-02-12T13:48:53.353Z,12.60
2023-02-12T13:51:44.225Z,12.80
2023-02-12T13:54:17.727Z,12.90
2023-02-12T13:56:56.245Z,13.20
2023-02-12T13:59:34.211Z,13.10
2023-02-12T14:02:33.050Z,13.10
2023-02-12T14:05:15.470Z,13.00
2023-02-12T14:08:15.793Z,13.10
2023-02-12T14:11:07.901Z,13.00
2023-02-12T14:13:55.196Z,13.10
2023-02-12T14:16:38.694Z,13.00
2023-02-12T14:19:52.857Z,12.70
2023-02-12T14:22:28.673Z,12.60
2023-02-12T14:25:00.195Z,12.60
2023-02-12T14:27:49.426Z,12.60
2023-02-12T14:30:38.339Z,12.70
2023-02-12T14:33:08.615Z,12.50
2023-02-12T14:35:44.024Z,12.40
2023-02-12T14:38:17.700Z,12.30
2023-02-12T14:40:47.092Z,12.20
2023-02-12T14:43:54.259Z,12.20
2023-02-12T14:46:23.826Z,12.20
2023-02-12T14:48:58.992Z,12.20
2023-02-12T14:52:11.712Z,12.00
2023-02-12T14:55:04.671Z,11.90
2023-02-12T14:57:34.932Z,11.80
2023-02-12T15:00:20.600Z,11.80
2023-02-12T15:02:53.496Z,11.80
2023-02-12T15:05:30.474Z,11.70
2023-02-12T15:08:05.127Z,11.60
2023-02-12T15:10:39.619Z,11.50
2023-02-12T15:13:36.668Z,11.50
2023-02-12T15:16:08.748Z,11.40
2023-02-12T15:18:40.348Z,11.50
2023-02-12T15:21:13.854Z,11.40
2023-02-12T15:23:45.013Z,11.30
2023-02-12T15:26:18.694Z,11.30
2023-02-12T15:28:51.043Z,11.20
2023-02-12T15:31:22.604Z,11.20
2023-02-12T15:33:55.591Z,11.20
2023-02-12T15:36:25.712Z,11.10
2023-02-12T15:39:04.538Z,11.10
2023-02-12T15:41:33.924Z,11.10
2023-02-12T15:44:02.759Z,11.10
2023-02-12T15:46:31.962Z,11.10
2023-02-12T15:48:59.428Z,11.10
2023-02-12T15:51:32.276Z,11.10
2023-02-12T15:54:02.567Z,11.00
2023-02-12T15:56:30.236Z,10.90
2023-02-12T15:58:59.183Z,10.90
2023-02-12T16:01:35.621Z,10.90
2023-02-12T16:04:05.465Z,10.90
2023-02-12T16:06:34.690Z,10.90
2023-02-12T16:09:08.678Z,10.90
2023-02-12T16:11:36.673Z,10.80
2023-02-12T16:14:13.753Z,10.70
2023-02-12T16:16:50.683Z,10.70
2023-02-12T16:19:26.367Z,10.60
2023-02-12T16:22:01.541Z,10.50
2023-02-12T16:24:32.220Z,10.50
2023-02-12T16:27:08.775Z,10.40
2023-02-12T16:29:44.635Z,10.40
2023-02-12T16:32:27.378Z,10.40
2023-02-12T16:35:30.657Z,10.30
2023-02-12T16:38:22.122Z,10.40
2023-02-12T16:41:26.897Z,10.30
2023-02-12T16:43:59.729Z,10.40
2023-02-12T16:46:33.359Z,10.30
2023-02-12T16:49:02.146Z,10.20
2023-02-12T16:51:34.174Z,10.20
2023-02-12T16:54:03.765Z,10.30
2023-02-12T16:56:38.549Z,10.20
2023-02-12T16:59:06.494Z,10.10
2023-02-12T17:01:36.416Z,10.10
2023-02-12T17:04:13.298Z,10.10
2023-02-12T17:06:39.967Z,10.10
2023-02-12T17:09:08.803Z,10.00
2023-02-12T17:11:35.441Z,10.00
2023-02-12T17:14:04.505Z,10.00
2023-02-12T17:16:32.241Z,10.00
2023-02-12T17:19:00.456Z,10.00
2023-02-12T17:21:38.276Z,9.90
2023-02-12T17:24:26.644Z,9.90
2023-02-12T17:26:56.666Z,9.80
2023-02-12T17:29:27.294Z,9.80
2023-02-12T17:31:55.746Z,9.70
2023-02-12T17:34:23.686Z,9.70
2023-02-12T17:36:53.002Z,9.70
2023-02-12T17:39:20.329Z,9.70
2023-02-12T17:41:47.619Z,9.70
2023-02-12T17:44:15.577Z,9.70
2023-02-12T17:46:42.910Z,9.70
2023-02-12T17:49:09.913Z,9.70
2023-02-12T17:51:36.748Z,9.60
2023-02-12T17:54:03.748Z,9.60
2023-02-12T17:56:30.693Z,9.60
2023-02-12T17:58:59.982Z,9.50
2023-02-12T18:01:27.217Z,9.50
2023-02-12T18:03:55.784Z,9.50
2023-02-12T18:06:28.039Z,9.50
2023-02-12T18:08:56.453Z,9.40
2023-02-12T18:11:23.352Z,9.40
2023-02-12T18:13:55.607Z,9.40
2023-02-12T18:16:23.698Z,9.30
2023-02-12T18:18:51.116Z,9.30
2023-02-12T18:21:19.927Z,9.30
2023-02-12T18:23:46.982Z,9.20
2023-02-12T18:26:18.507Z,9.20
2023-02-12T18:28:47.586Z,9.10
2023-02-12T18:31:14.912Z,9.10
2023-02-12T18:33:44.922Z,9.00
2023-02-12T18:36:14.731Z,9.00
2023-02-12T18:38:42.234Z,9.00
2023-02-12T18:41:14.841Z,9.00
2023-02-12T18:43:44.377Z,8.90
2023-02-12T18:46:12.569Z,9.00
2023-02-12T18:48:39.853Z,9.00
2023-02-12T18:51:08.699Z,8.90
2023-02-12T18:53:35.642Z,9.00
2023-02-12T18:56:09.753Z,8.90
2023-02-12T18:58:37.027Z,8.90
2023-02-12T19:01:19.053Z,8.90
2023-02-12T19:03:52.241Z,8.90
2023-02-12T19:06:18.889Z,8.90
2023-02-12T19:08:45.782Z,8.90
2023-02-12T19:11:14.791Z,8.90
2023-02-12T19:13:42.128Z,8.90
2023-02-12T19:16:12.155Z,8.90
2023-02-12T19:18:38.794Z,8.90
2023-02-12T19:21:11.064Z,8.90
2023-02-12T19:23:40.561Z,8.90
2023-02-12T19:26:13.268Z,8.90
2023-02-12T19:28:39.992Z,8.90
2023-02-12T19:31:18.540Z,8.90
2023-02-12T19:33:46.428Z,8.90
2023-02-12T19:36:19.597Z,8.90
2023-02-12T19:38:48.879Z,8.90
2023-02-12T19:41:22.964Z,8.90
2023-02-12T19:43:54.406Z,8.90
2023-02-12T19:46:23.804Z,9.00
2023-02-12T19:48:55.980Z,9.00
2023-02-12T19:51:24.957Z,9.00
2023-02-12T19:53:56.088Z,9.00
2023-02-12T19:56:24.891Z,9.00
2023-02-12T19:58:51.671Z,9.00
2023-02-12T20:01:21.948Z,9.00
2023-02-12T20:03:53.185Z,9.10
2023-02-12T20:06:24.769Z,9.10
2023-02-12T20:08:51.816Z,9.10
2023-02-12T20:11:24.284Z,9.10
2023-02-12T20:13:51.605Z,9.20
2023-02-12T20:16:23.805Z,9.20
2023-02-12T20:18:53.573Z,9.20
2023-02-12T20:21:29.154Z,9.20
2023-02-12T20:23:55.977Z,9.20
2023-02-12T20:26:22.726Z,9.20
2023-02-12T20:28:50.531Z,9.20
2023-02-12T20:31:21.692Z,9.20
2023-02-12T20:33:57.387Z,9.20
2023-02-12T20:36:31.622Z,9.20
2023-02-12T20:38:58.880Z,9.20
2023-02-12T20:41:26.939Z,9.20
2023-02-12T20:43:54.491Z,9.20
2023-02-12T20:46:25.280Z,9.20
2023-02-12T20:48:54.119Z,9.20
2023-02-12T20:51:25.154Z,9.20
2023-02-12T20:53:55.429Z,9.20
2023-02-12T20:56:25.290Z,9.20
2023-02-12T20:58:52.794Z,9.20
2023-02-12T21:01:25.000Z,9.20
2023-02-12T21:03:55.115Z,9.20
2023-02-12T21:06:25.520Z,9.20
2023-02-12T21:08:52.207Z,9.10
2023-02-12T21:11:23.975Z,9.10
2023-02-12T21:14:02.558Z,9.10
2023-02-12T21:16:35.453Z,9.10
2023-02-12T21:19:02.573Z,9.10
2023-02-12T21:21:33.799Z,9.10
2023-02-12T21:24:01.762Z,9.00
2023-02-12T21:26:30.140Z,9.00
2023-02-12T21:28:58.809Z,9.00
2023-02-12T21:31:36.042Z,9.00
2023-02-12T21:34:06.979Z,9.00
2023-02-12T21:36:41.274Z,9.00
2023-02-12T21:39:09.984Z,9.00
2023-02-12T21:41:39.265Z,9.00
2023-02-12T21:44:08.836Z,9.00
2023-02-12T21:46:39.688Z,9.00
2023-02-12T21:49:06.435Z,9.00
2023-02-12T21:51:34.585Z,9.00
2023-02-12T21:54:04.679Z,9.00
2023-02-12T21:56:31.892Z,9.00
2023-02-12T21:59:01.256Z,9.00
2023-02-12T22:01:37.337Z,8.90
2023-02-12T22:04:08.149Z,8.90
2023-02-12T22:06:45.910Z,8.90
2023-02-12T22:09:14.780Z,8.90
2023-02-12T22:11:44.543Z,8.90
2023-02-12T22:14:14.997Z,8.90
2023-02-12T22:16:44.210Z,8.90
2023-02-12T22:19:11.093Z,9.00
2023-02-12T22:21:40.307Z,8.90
2023-02-12T22:24:09.423Z,9.00
2023-02-12T22:26:38.614Z,9.00
2023-02-12T22:29:10.356Z,9.00
2023-02-12T22:31:43.935Z,8.90
2023-02-12T22:34:15.751Z,8.90
2023-02-12T22:36:45.094Z,8.90
2023-02-12T22:39:13.371Z,8.90
2023-02-12T22:41:43.337Z,9.00
2023-02-12T22:44:14.368Z,9.00
2023-02-12T22:46:42.445Z,8.90
2023-02-12T22:49:09.329Z,8.90
2023-02-12T22:51:38.874Z,8.90
2023-02-12T22:54:06.814Z,8.90
2023-02-12T22:56:33.490Z,8.90
2023-02-12T22:59:05.446Z,8.90
2023-02-12T23:01:32.273Z,8.90
2023-02-12T23:03:59.368Z,8.90
2023-02-12T23:06:29.192Z,8.90
2023-02-12T23:08:59.073Z,8.90
2023-02-12T23:11:29.592Z,8.90
2023-02-12T23:13:57.192Z,8.90
2023-02-12T23:16:24.540Z,8.90
2023-02-12T23:19:01.239Z,8.90
2023-02-12T23:21:29.728Z,8.90
2023-02-12T23:23:58.982Z,8.90
2023-02-12T23:26:25.858Z,8.90
2023-02-12T23:28:52.512Z,8.80
2023-02-12T23:31:21.904Z,8.80
2023-02-12T23:33:48.668Z,8.80
2023-02-12T23:36:15.428Z,8.80
2023-02-12T23:38:42.117Z,8.80
2023-02-12T23:41:11.297Z,8.90
2023-02-12T23:43:38.011Z,8.90
2023-02-12T23:46:04.912Z,8.90
2023-02-12T23:48:33.812Z,8.90
2023-02-12T23:51:02.867Z,8.90
2023-02-12T23:53:31.828Z,8.90
2023-02-12T23:56:03.476Z,8.80
2023-02-12T23:58:30.171Z,8.80
